sensor_id;sensor_type;location;lat;lon;timestamp;pressure;altitude;pressure_sealevel;temperature;humidity
77079;BME280;66004;55.096;38.760;2023-04-25T00:02:04;100003.47;;;12.50;49.58
77079;BME280;66004;55.096;38.760;2023-04-25T00:04:30;99998.31;;;12.39;49.94
77079;BME280;66004;55.096;38.760;2023-04-25T00:06:58;99998.91;;;12.33;50.28
77079;BME280;66004;55.096;38.760;2023-04-25T00:09:27;100013.59;;;12.38;50.57
77079;BME280;66004;55.096;38.760;2023-04-25T00:11:52;100006.09;;;12.30;50.42
77079;BME280;66004;55.096;38.760;2023-04-25T00:14:18;100006.91;;;12.31;50.47
77079;BME280;66004;55.096;38.760;2023-04-25T00:16:44;100003.50;;;12.25;50.83
77079;BME280;66004;55.096;38.760;2023-04-25T00:19:09;100009.84;;;12.22;50.99
77079;BME280;66004;55.096;38.760;2023-04-25T00:21:35;100008.91;;;12.18;50.97
77079;BME280;66004;55.096;38.760;2023-04-25T00:24:03;99996.44;;;12.06;51.25
77079;BME280;66004;55.096;38.760;2023-04-25T00:26:28;100003.63;;;12.04;51.30
77079;BME280;66004;55.096;38.760;2023-04-25T00:28:54;100004.66;;;11.99;51.67
77079;BME280;66004;55.096;38.760;2023-04-25T00:31:19;99988.41;;;11.84;51.87
77079;BME280;66004;55.096;38.760;2023-04-25T00:33:45;99999.53;;;11.80;52.18
77079;BME280;66004;55.096;38.760;2023-04-25T00:36:10;100002.69;;;11.79;52.11
77079;BME280;66004;55.096;38.760;2023-04-25T00:38:36;99996.00;;;11.71;52.43
77079;BME280;66004;55.096;38.760;2023-04-25T00:41:05;100005.50;;;11.66;52.55
77079;BME280;66004;55.096;38.760;2023-04-25T00:43:32;100002.78;;;11.58;52.99
77079;BME280;66004;55.096;38.760;2023-04-25T00:46:00;100003.00;;;11.53;53.01
77079;BME280;66004;55.096;38.760;2023-04-25T00:48:25;99991.84;;;11.44;53.09
77079;BME280;66004;55.096;38.760;2023-04-25T00:50:53;99991.56;;;11.37;53.31
77079;BME280;66004;55.096;38.760;2023-04-25T00:53:20;99994.72;;;11.35;53.58
77079;BME280;66004;55.096;38.760;2023-04-25T00:55:46;99988.69;;;11.24;53.77
77079;BME280;66004;55.096;38.760;2023-04-25T00:58:12;99985.41;;;11.22;53.68
77079;BME280;66004;55.096;38.760;2023-04-25T01:00:37;99985.16;;;11.15;53.91
77079;BME280;66004;55.096;38.760;2023-04-25T01:03:03;99996.44;;;11.15;54.06
77079;BME280;66004;55.096;38.760;2023-04-25T01:05:29;100008.38;;;11.12;54.24
77079;BME280;66004;55.096;38.760;2023-04-25T01:07:55;100007.75;;;11.06;54.50
77079;BME280;66004;55.096;38.760;2023-04-25T01:10:20;100005.97;;;11.02;54.71
77079;BME280;66004;55.096;38.760;2023-04-25T01:12:47;100011.09;;;11.00;54.78
77079;BME280;66004;55.096;38.760;2023-04-25T01:15:12;100006.06;;;10.93;54.95
77079;BME280;66004;55.096;38.760;2023-04-25T01:17:38;99997.00;;;10.87;55.14
77079;BME280;66004;55.096;38.760;2023-04-25T01:20:05;100008.09;;;10.84;55.25
77079;BME280;66004;55.096;38.760;2023-04-25T01:22:32;99999.72;;;10.75;55.33
77079;BME280;66004;55.096;38.760;2023-04-25T01:24:59;99984.69;;;10.71;55.59
77079;BME280;66004;55.096;38.760;2023-04-25T01:27:25;99989.38;;;10.67;55.62
77079;BME280;66004;55.096;38.760;2023-04-25T01:29:51;99991.22;;;10.63;55.81
77079;BME280;66004;55.096;38.760;2023-04-25T01:32:17;99993.56;;;10.61;55.90
77079;BME280;66004;55.096;38.760;2023-04-25T01:34:43;99995.88;;;10.59;56.10
77079;BME280;66004;55.096;38.760;2023-04-25T01:37:09;99987.63;;;10.54;56.38
77079;BME280;66004;55.096;38.760;2023-04-25T01:39:34;99982.41;;;10.43;56.28
77079;BME280;66004;55.096;38.760;2023-04-25T01:42:00;99995.78;;;10.46;56.57
77079;BME280;66004;55.096;38.760;2023-04-25T01:44:27;99995.31;;;10.44;56.34
77079;BME280;66004;55.096;38.760;2023-04-25T01:46:52;99997.63;;;10.42;56.72
77079;BME280;66004;55.096;38.760;2023-04-25T01:49:18;99981.81;;;10.29;57.04
77079;BME280;66004;55.096;38.760;2023-04-25T01:51:43;99993.38;;;10.36;56.99
77079;BME280;66004;55.096;38.760;2023-04-25T01:54:10;99997.34;;;10.35;57.26
77079;BME280;66004;55.096;38.760;2023-04-25T01:56:37;99994.38;;;10.31;57.32
77079;BME280;66004;55.096;38.760;2023-04-25T01:59:04;99990.59;;;10.27;57.43
77079;BME280;66004;55.096;38.760;2023-04-25T02:01:29;99992.56;;;10.27;57.43
77079;BME280;66004;55.096;38.760;2023-04-25T02:03:55;99996.06;;;10.24;57.53
77079;BME280;66004;55.096;38.760;2023-04-25T02:06:20;99991.94;;;10.21;57.42
77079;BME280;66004;55.096;38.760;2023-04-25T02:08:46;99987.31;;;10.17;57.64
77079;BME280;66004;55.096;38.760;2023-04-25T02:11:11;99967.06;;;10.02;57.47
77079;BME280;66004;55.096;38.760;2023-04-25T02:13:37;99981.78;;;9.99;57.70
77079;BME280;66004;55.096;38.760;2023-04-25T02:16:02;99978.03;;;9.95;57.81
77079;BME280;66004;55.096;38.760;2023-04-25T02:18:28;99994.19;;;9.98;57.99
77079;BME280;66004;55.096;38.760;2023-04-25T02:20:53;99981.41;;;9.80;58.04
77079;BME280;66004;55.096;38.760;2023-04-25T02:23:19;99989.97;;;9.83;58.46
77079;BME280;66004;55.096;38.760;2023-04-25T02:25:45;99973.16;;;9.74;58.58
77079;BME280;66004;55.096;38.760;2023-04-25T02:28:10;99988.66;;;9.81;58.91
77079;BME280;66004;55.096;38.760;2023-04-25T02:30:36;99985.53;;;9.73;58.63
77079;BME280;66004;55.096;38.760;2023-04-25T02:33:02;99985.88;;;9.72;58.89
77079;BME280;66004;55.096;38.760;2023-04-25T02:35:27;99986.22;;;9.70;59.24
77079;BME280;66004;55.096;38.760;2023-04-25T02:37:53;99992.31;;;9.72;59.28
77079;BME280;66004;55.096;38.760;2023-04-25T02:40:18;99972.53;;;9.60;59.87
77079;BME280;66004;55.096;38.760;2023-04-25T02:42:44;99985.88;;;9.72;59.55
77079;BME280;66004;55.096;38.760;2023-04-25T02:45:11;99981.91;;;9.64;59.42
77079;BME280;66004;55.096;38.760;2023-04-25T02:47:36;99973.50;;;9.64;59.74
77079;BME280;66004;55.096;38.760;2023-04-25T02:52:24;99985.53;;;9.73;59.08
77079;BME280;66004;55.096;38.760;2023-04-25T02:54:50;99986.00;;;9.75;59.58
77079;BME280;66004;55.096;38.760;2023-04-25T02:57:15;99994.97;;;9.78;59.43
77079;BME280;66004;55.096;38.760;2023-04-25T02:59:41;99980.13;;;9.68;59.62
77079;BME280;66004;55.096;38.760;2023-04-25T03:02:06;99987.84;;;9.80;59.80
77079;BME280;66004;55.096;38.760;2023-04-25T03:04:32;99986.31;;;9.83;59.68
77079;BME280;66004;55.096;38.760;2023-04-25T03:06:58;99981.03;;;9.81;59.70
77079;BME280;66004;55.096;38.760;2023-04-25T03:09:24;99992.25;;;9.90;59.70
77079;BME280;66004;55.096;38.760;2023-04-25T03:11:49;99980.34;;;9.93;59.37
77079;BME280;66004;55.096;38.760;2023-04-25T03:14:14;99982.94;;;9.98;59.54
77079;BME280;66004;55.096;38.760;2023-04-25T03:16:40;99980.66;;;10.00;59.31
77079;BME280;66004;55.096;38.760;2023-04-25T03:19:05;99984.44;;;10.04;59.17
77079;BME280;66004;55.096;38.760;2023-04-25T03:21:32;99978.09;;;10.07;59.17
77079;BME280;66004;55.096;38.760;2023-04-25T03:23:59;99983.53;;;10.12;59.47
77079;BME280;66004;55.096;38.760;2023-04-25T03:26:24;99980.56;;;10.18;59.50
77079;BME280;66004;55.096;38.760;2023-04-25T03:28:50;99972.75;;;10.23;59.56
77079;BME280;66004;55.096;38.760;2023-04-25T03:31:15;99990.25;;;10.29;59.57
77079;BME280;66004;55.096;38.760;2023-04-25T03:33:41;99985.63;;;10.33;59.26
77079;BME280;66004;55.096;38.760;2023-04-25T03:36:06;99984.25;;;10.39;59.22
77079;BME280;66004;55.096;38.760;2023-04-25T03:38:32;99980.75;;;10.42;59.16
77079;BME280;66004;55.096;38.760;2023-04-25T03:40:57;99983.38;;;10.47;59.37
77079;BME280;66004;55.096;38.760;2023-04-25T03:43:23;99982.00;;;10.54;59.27
77079;BME280;66004;55.096;38.760;2023-04-25T03:45:48;99986.94;;;10.57;59.15
77079;BME280;66004;55.096;38.760;2023-04-25T03:48:14;99997.19;;;10.61;59.06
77079;BME280;66004;55.096;38.760;2023-04-25T03:50:39;99995.19;;;10.62;58.96
77079;BME280;66004;55.096;38.760;2023-04-25T03:53:05;100006.25;;;10.67;58.75
77079;BME280;66004;55.096;38.760;2023-04-25T03:55:30;100003.44;;;10.67;58.73
77079;BME280;66004;55.096;38.760;2023-04-25T03:57:56;99998.75;;;10.71;58.73
77079;BME280;66004;55.096;38.760;2023-04-25T04:00:23;99994.09;;;10.75;58.65
77079;BME280;66004;55.096;38.760;2023-04-25T04:02:48;99990.81;;;10.73;58.77
77079;BME280;66004;55.096;38.760;2023-04-25T04:05:14;99995.63;;;10.73;58.92
77079;BME280;66004;55.096;38.760;2023-04-25T04:07:40;99996.44;;;10.73;59.15
77079;BME280;66004;55.096;38.760;2023-04-25T04:10:11;99987.16;;;10.73;58.94
77079;BME280;66004;55.096;38.760;2023-04-25T04:12:37;99997.00;;;10.87;58.71
77079;BME280;66004;55.096;38.760;2023-04-25T04:15:05;99994.94;;;10.97;58.57
77079;BME280;66004;55.096;38.760;2023-04-25T04:17:31;99987.91;;;11.03;58.58
77079;BME280;66004;55.096;38.760;2023-04-25T04:19:57;99975.13;;;11.05;58.39
77079;BME280;66004;55.096;38.760;2023-04-25T04:22:24;99981.69;;;11.30;57.88
77079;BME280;66004;55.096;38.760;2023-04-25T04:24:49;99980.03;;;11.75;56.97
77079;BME280;66004;55.096;38.760;2023-04-25T04:27:18;99975.75;;;12.15;55.79
77079;BME280;66004;55.096;38.760;2023-04-25T04:29:45;99970.28;;;12.71;54.82
77079;BME280;66004;55.096;38.760;2023-04-25T04:32:12;99962.00;;;12.91;54.04
77079;BME280;66004;55.096;38.760;2023-04-25T04:34:38;99959.84;;;13.00;53.87
77079;BME280;66004;55.096;38.760;2023-04-25T04:37:05;99938.56;;;13.18;53.14
77079;BME280;66004;55.096;38.760;2023-04-25T04:39:32;99948.34;;;13.49;52.70
77079;BME280;66004;55.096;38.760;2023-04-25T04:41:57;99944.88;;;13.40;52.97
77079;BME280;66004;55.096;38.760;2023-04-25T04:44:24;99942.91;;;13.28;52.70
77079;BME280;66004;55.096;38.760;2023-04-25T04:46:50;99936.78;;;13.26;53.36
77079;BME280;66004;55.096;38.760;2023-04-25T04:49:16;99943.59;;;13.25;53.41
77079;BME280;66004;55.096;38.760;2023-04-25T04:51:42;99939.69;;;13.30;53.11
77079;BME280;66004;55.096;38.760;2023-04-25T04:54:09;99941.44;;;13.62;52.31
77079;BME280;66004;55.096;38.760;2023-04-25T04:56:35;99933.22;;;13.89;51.98
77079;BME280;66004;55.096;38.760;2023-04-25T04:59:00;99938.28;;;14.31;50.43
77079;BME280;66004;55.096;38.760;2023-04-25T05:01:28;99952.72;;;14.77;49.47
77079;BME280;66004;55.096;38.760;2023-04-25T05:03:55;99957.31;;;14.86;49.46
77079;BME280;66004;55.096;38.760;2023-04-25T05:06:26;99956.59;;;15.28;48.26
77079;BME280;66004;55.096;38.760;2023-04-25T05:08:52;99939.91;;;15.46;47.85
77079;BME280;66004;55.096;38.760;2023-04-25T05:11:18;99944.66;;;15.18;48.28
77079;BME280;66004;55.096;38.760;2023-04-25T05:13:44;99936.41;;;14.90;49.29
77079;BME280;66004;55.096;38.760;2023-04-25T05:16:11;99929.59;;;14.75;49.68
77079;BME280;66004;55.096;38.760;2023-04-25T05:18:37;99929.16;;;14.93;49.02
77079;BME280;66004;55.096;38.760;2023-04-25T05:21:03;99923.94;;;15.14;48.85
77079;BME280;66004;55.096;38.760;2023-04-25T05:23:28;99935.28;;;15.14;48.44
77079;BME280;66004;55.096;38.760;2023-04-25T05:25:55;99938.25;;;15.02;48.85
77079;BME280;66004;55.096;38.760;2023-04-25T05:28:21;99936.16;;;15.18;48.37
77079;BME280;66004;55.096;38.760;2023-04-25T05:30:47;99930.66;;;15.26;48.55
77079;BME280;66004;55.096;38.760;2023-04-25T05:33:12;99940.78;;;15.27;48.46
77079;BME280;66004;55.096;38.760;2023-04-25T05:35:38;99941.34;;;15.36;48.44
77079;BME280;66004;55.096;38.760;2023-04-25T05:38:03;99946.97;;;15.55;48.33
77079;BME280;66004;55.096;38.760;2023-04-25T05:40:29;99930.53;;;15.65;47.93
77079;BME280;66004;55.096;38.760;2023-04-25T05:42:54;99948.44;;;15.69;47.64
77079;BME280;66004;55.096;38.760;2023-04-25T05:45:20;99945.94;;;15.64;47.84
77079;BME280;66004;55.096;38.760;2023-04-25T05:47:45;99927.72;;;15.65;47.41
77079;BME280;66004;55.096;38.760;2023-04-25T05:50:11;99927.19;;;15.79;47.13
77079;BME280;66004;55.096;38.760;2023-04-25T05:52:36;99948.09;;;15.93;47.11
77079;BME280;66004;55.096;38.760;2023-04-25T05:55:02;99950.19;;;15.96;47.40
77079;BME280;66004;55.096;38.760;2023-04-25T05:57:27;99950.56;;;16.18;46.94
77079;BME280;66004;55.096;38.760;2023-04-25T05:59:53;99950.22;;;16.23;46.48
77079;BME280;66004;55.096;38.760;2023-04-25T06:02:20;99946.19;;;16.24;46.13
77079;BME280;66004;55.096;38.760;2023-04-25T06:04:46;99947.28;;;16.43;45.62
77079;BME280;66004;55.096;38.760;2023-04-25T06:07:12;99954.19;;;16.72;45.20
77079;BME280;66004;55.096;38.760;2023-04-25T06:09:38;99951.06;;;16.81;44.27
77079;BME280;66004;55.096;38.760;2023-04-25T06:12:05;99947.13;;;16.89;43.84
77079;BME280;66004;55.096;38.760;2023-04-25T06:14:31;99943.28;;;17.04;42.86
77079;BME280;66004;55.096;38.760;2023-04-25T06:16:56;99924.75;;;17.14;42.53
77079;BME280;66004;55.096;38.760;2023-04-25T06:19:22;99950.22;;;17.41;42.30
77079;BME280;66004;55.096;38.760;2023-04-25T06:21:47;99940.03;;;17.77;41.85
77079;BME280;66004;55.096;38.760;2023-04-25T06:24:13;99940.47;;;18.24;40.84
77079;BME280;66004;55.096;38.760;2023-04-25T06:26:38;99943.91;;;18.55;39.98
77079;BME280;66004;55.096;38.760;2023-04-25T06:29:04;99928.50;;;18.59;39.45
77079;BME280;66004;55.096;38.760;2023-04-25T06:31:29;99928.03;;;18.50;39.56
77079;BME280;66004;55.096;38.760;2023-04-25T06:33:57;99938.16;;;18.47;39.44
77079;BME280;66004;55.096;38.760;2023-04-25T06:36:23;99935.41;;;18.58;39.34
77079;BME280;66004;55.096;38.760;2023-04-25T06:38:52;99925.13;;;18.43;39.51
77079;BME280;66004;55.096;38.760;2023-04-25T06:41:18;99931.72;;;18.54;39.30
77079;BME280;66004;55.096;38.760;2023-04-25T06:43:44;99928.63;;;18.81;39.28
77079;BME280;66004;55.096;38.760;2023-04-25T06:46:10;99927.84;;;18.84;39.17
77079;BME280;66004;55.096;38.760;2023-04-25T06:48:36;99928.19;;;18.79;39.27
77079;BME280;66004;55.096;38.760;2023-04-25T06:51:01;99918.88;;;18.82;39.06
77079;BME280;66004;55.096;38.760;2023-04-25T06:53:27;99916.34;;;18.70;38.68
77079;BME280;66004;55.096;38.760;2023-04-25T06:55:52;99911.19;;;18.23;39.04
77079;BME280;66004;55.096;38.760;2023-04-25T06:58:18;99916.78;;;18.13;39.33
77079;BME280;66004;55.096;38.760;2023-04-25T07:00:43;99908.75;;;18.25;39.41
77079;BME280;66004;55.096;38.760;2023-04-25T07:03:09;99906.28;;;18.24;39.14
77079;BME280;66004;55.096;38.760;2023-04-25T07:05:35;99896.03;;;18.12;39.66
77079;BME280;66004;55.096;38.760;2023-04-25T07:08:00;99905.41;;;18.16;39.42
77079;BME280;66004;55.096;38.760;2023-04-25T07:10:26;99918.38;;;18.10;39.28
77079;BME280;66004;55.096;38.760;2023-04-25T07:12:51;99904.84;;;17.96;39.07
77079;BME280;66004;55.096;38.760;2023-04-25T07:15:17;99912.38;;;17.78;39.67
77079;BME280;66004;55.096;38.760;2023-04-25T07:17:42;99910.00;;;17.83;39.58
77079;BME280;66004;55.096;38.760;2023-04-25T07:20:08;99908.72;;;17.77;39.16
77079;BME280;66004;55.096;38.760;2023-04-25T07:22:35;99907.53;;;17.78;39.30
77079;BME280;66004;55.096;38.760;2023-04-25T07:25:03;99907.59;;;17.85;39.50
77079;BME280;66004;55.096;38.760;2023-04-25T07:27:30;99902.75;;;17.86;39.13
77079;BME280;66004;55.096;38.760;2023-04-25T07:29:56;99900.34;;;17.92;39.12
77079;BME280;66004;55.096;38.760;2023-04-25T07:32:21;99897.38;;;17.81;38.98
77079;BME280;66004;55.096;38.760;2023-04-25T07:34:47;99905.88;;;17.77;38.92
77079;BME280;66004;55.096;38.760;2023-04-25T07:37:12;99910.06;;;17.87;39.07
77079;BME280;66004;55.096;38.760;2023-04-25T07:39:39;99902.69;;;17.82;39.69
77079;BME280;66004;55.096;38.760;2023-04-25T07:42:04;99906.66;;;17.74;39.38
77079;BME280;66004;55.096;38.760;2023-04-25T07:44:33;99907.16;;;17.83;39.57
77079;BME280;66004;55.096;38.760;2023-04-25T07:47:07;99902.31;;;17.87;39.92
77079;BME280;66004;55.096;38.760;2023-04-25T07:49:36;99902.03;;;18.00;39.91
77079;BME280;66004;55.096;38.760;2023-04-25T07:52:03;99911.13;;;18.16;39.56
77079;BME280;66004;55.096;38.760;2023-04-25T07:54:29;99908.81;;;18.40;39.44
77079;BME280;66004;55.096;38.760;2023-04-25T07:56:55;99905.66;;;18.52;39.17
77079;BME280;66004;55.096;38.760;2023-04-25T07:59:21;99914.63;;;18.54;38.80
77079;BME280;66004;55.096;38.760;2023-04-25T08:01:47;99905.72;;;18.66;38.48
77079;BME280;66004;55.096;38.760;2023-04-25T08:04:12;99908.63;;;18.74;38.50
77079;BME280;66004;55.096;38.760;2023-04-25T08:06:38;99899.31;;;18.80;38.40
77079;BME280;66004;55.096;38.760;2023-04-25T08:09:04;99904.09;;;18.65;38.59
77079;BME280;66004;55.096;38.760;2023-04-25T08:11:30;99902.72;;;18.38;38.85
77079;BME280;66004;55.096;38.760;2023-04-25T08:13:55;99907.06;;;18.21;39.36
77079;BME280;66004;55.096;38.760;2023-04-25T08:16:21;99899.41;;;18.32;39.06
77079;BME280;66004;55.096;38.760;2023-04-25T08:18:47;99899.78;;;18.27;38.89
77079;BME280;66004;55.096;38.760;2023-04-25T08:21:12;99895.72;;;18.24;38.88
77079;BME280;66004;55.096;38.760;2023-04-25T08:23:38;99889.28;;;18.35;38.65
77079;BME280;66004;55.096;38.760;2023-04-25T08:26:04;99895.44;;;18.47;38.33
77079;BME280;66004;55.096;38.760;2023-04-25T08:28:32;99892.16;;;18.42;38.32
77079;BME280;66004;55.096;38.760;2023-04-25T08:30:58;99884.25;;;18.17;38.59
77079;BME280;66004;55.096;38.760;2023-04-25T08:33:23;99884.47;;;17.90;38.91
77079;BME280;66004;55.096;38.760;2023-04-25T08:35:49;99875.50;;;17.88;39.23
77079;BME280;66004;55.096;38.760;2023-04-25T08:38:15;99876.00;;;17.98;39.46
77079;BME280;66004;55.096;38.760;2023-04-25T08:40:41;99855.84;;;18.24;38.76
77079;BME280;66004;55.096;38.760;2023-04-25T08:43:08;99863.31;;;18.47;38.49
77079;BME280;66004;55.096;38.760;2023-04-25T08:45:39;99859.13;;;18.30;38.33
77079;BME280;66004;55.096;38.760;2023-04-25T08:48:14;99863.56;;;18.20;38.39
77079;BME280;66004;55.096;38.760;2023-04-25T08:52:43;99862.47;;;18.43;38.27
77079;BME280;66004;55.096;38.760;2023-04-25T08:55:12;99853.59;;;18.62;38.00
77079;BME280;66004;55.096;38.760;2023-04-25T08:57:38;99841.50;;;18.83;38.01
77079;BME280;66004;55.096;38.760;2023-04-25T09:00:07;99848.94;;;19.02;37.12
77079;BME280;66004;55.096;38.760;2023-04-25T09:02:33;99842.44;;;19.16;37.01
77079;BME280;66004;55.096;38.760;2023-04-25T09:04:59;99831.84;;;19.17;36.37
77079;BME280;66004;55.096;38.760;2023-04-25T09:07:24;99841.63;;;19.30;35.99
77079;BME280;66004;55.096;38.760;2023-04-25T09:09:51;99828.59;;;19.25;36.56
77079;BME280;66004;55.096;38.760;2023-04-25T09:12:19;99826.19;;;19.38;36.57
77079;BME280;66004;55.096;38.760;2023-04-25T09:15:05;99822.94;;;19.65;36.05
77079;BME280;66004;55.096;38.760;2023-04-25T09:17:31;99820.88;;;19.69;36.14
77079;BME280;66004;55.096;38.760;2023-04-25T09:20:08;99813.97;;;19.63;35.69
77079;BME280;66004;55.096;38.760;2023-04-25T09:22:36;99806.19;;;19.53;35.89
77079;BME280;66004;55.096;38.760;2023-04-25T09:25:03;99802.53;;;19.56;36.03
77079;BME280;66004;55.096;38.760;2023-04-25T09:27:29;99803.34;;;19.42;35.89
77079;BME280;66004;55.096;38.760;2023-04-25T09:29:58;99802.53;;;19.34;35.93
77079;BME280;66004;55.096;38.760;2023-04-25T09:32:27;99797.63;;;19.42;35.92
77079;BME280;66004;55.096;38.760;2023-04-25T09:34:54;99795.22;;;19.40;35.61
77079;BME280;66004;55.096;38.760;2023-04-25T09:37:25;99792.75;;;19.35;35.40
77079;BME280;66004;55.096;38.760;2023-04-25T09:39:54;99788.66;;;19.36;35.57
77079;BME280;66004;55.096;38.760;2023-04-25T09:42:27;99778.91;;;19.37;35.38
77079;BME280;66004;55.096;38.760;2023-04-25T09:44:55;99774.81;;;19.31;35.67
77079;BME280;66004;55.096;38.760;2023-04-25T09:47:23;99789.91;;;19.42;35.22
77079;BME280;66004;55.096;38.760;2023-04-25T09:49:50;99789.50;;;19.69;35.09
77079;BME280;66004;55.096;38.760;2023-04-25T09:52:23;99784.63;;;19.80;34.62
77079;BME280;66004;55.096;38.760;2023-04-25T09:54:50;99776.47;;;19.75;34.73
77079;BME280;66004;55.096;38.760;2023-04-25T09:57:20;99778.88;;;19.70;34.41
77079;BME280;66004;55.096;38.760;2023-04-25T10:02:15;99769.50;;;19.91;34.28
77079;BME280;66004;55.096;38.760;2023-04-25T10:04:42;99769.91;;;19.93;33.90
77079;BME280;66004;55.096;38.760;2023-04-25T10:07:09;99773.19;;;19.88;33.69
77079;BME280;66004;55.096;38.760;2023-04-25T10:09:38;99769.50;;;19.91;33.63
77079;BME280;66004;55.096;38.760;2023-04-25T10:12:06;99766.66;;;19.91;33.63
77079;BME280;66004;55.096;38.760;2023-04-25T10:14:32;99776.44;;;19.97;33.87
77079;BME280;66004;55.096;38.760;2023-04-25T10:16:58;99770.75;;;19.97;33.86
77079;BME280;66004;55.096;38.760;2023-04-25T10:19:25;99760.88;;;20.23;33.69
77079;BME280;66004;55.096;38.760;2023-04-25T10:22:13;99742.84;;;20.40;33.57
77079;BME280;66004;55.096;38.760;2023-04-25T10:24:40;99756.63;;;20.64;33.17
77079;BME280;66004;55.096;38.760;2023-04-25T10:27:07;99751.28;;;20.73;32.98
77079;BME280;66004;55.096;38.760;2023-04-25T10:29:32;99750.84;;;20.78;33.07
77079;BME280;66004;55.096;38.760;2023-04-25T10:31:58;99750.00;;;20.81;33.29
77079;BME280;66004;55.096;38.760;2023-04-25T10:34:37;99743.50;;;20.77;32.77
77079;BME280;66004;55.096;38.760;2023-04-25T10:37:04;99732.94;;;20.67;33.07
77079;BME280;66004;55.096;38.760;2023-04-25T10:39:29;99740.31;;;20.60;32.77
77079;BME280;66004;55.096;38.760;2023-04-25T10:41:57;99718.34;;;20.43;32.94
77079;BME280;66004;55.096;38.760;2023-04-25T10:44:26;99721.94;;;20.54;33.26
77079;BME280;66004;55.096;38.760;2023-04-25T10:46:52;99723.63;;;20.48;32.92
77079;BME280;66004;55.096;38.760;2023-04-25T10:49:37;99721.66;;;20.34;32.97
77079;BME280;66004;55.096;38.760;2023-04-25T10:52:34;99706.94;;;20.36;33.07
77079;BME280;66004;55.096;38.760;2023-04-25T10:55:02;99712.22;;;20.41;32.75
77079;BME280;66004;55.096;38.760;2023-04-25T10:57:43;99704.06;;;20.36;32.97
77079;BME280;66004;55.096;38.760;2023-04-25T11:00:19;99706.13;;;20.32;33.27
77079;BME280;66004;55.096;38.760;2023-04-25T11:02:57;99699.63;;;20.28;33.58
77079;BME280;66004;55.096;38.760;2023-04-25T11:05:31;99700.50;;;20.17;33.29
77079;BME280;66004;55.096;38.760;2023-04-25T11:07:57;99687.47;;;20.06;33.37
77079;BME280;66004;55.096;38.760;2023-04-25T11:10:31;99688.31;;;20.06;33.62
77079;BME280;66004;55.096;38.760;2023-04-25T11:12:58;99679.78;;;19.99;33.66
77079;BME280;66004;55.096;38.760;2023-04-25T11:15:24;99677.75;;;19.89;33.91
77079;BME280;66004;55.096;38.760;2023-04-25T11:17:54;99663.91;;;19.83;33.83
77079;BME280;66004;55.096;38.760;2023-04-25T11:20:20;99669.16;;;19.96;33.52
77079;BME280;66004;55.096;38.760;2023-04-25T11:22:47;99651.63;;;19.97;32.73
77079;BME280;66004;55.096;38.760;2023-04-25T11:25:14;99656.41;;;20.18;32.56
77079;BME280;66004;55.096;38.760;2023-04-25T11:27:57;99666.94;;;20.36;32.59
77079;BME280;66004;55.096;38.760;2023-04-25T11:30:24;99642.38;;;20.49;32.18
77079;BME280;66004;55.096;38.760;2023-04-25T11:32:50;99636.72;;;20.42;32.45
77079;BME280;66004;55.096;38.760;2023-04-25T11:35:18;99626.16;;;20.28;32.92
77079;BME280;66004;55.096;38.760;2023-04-25T11:37:44;99628.16;;;20.42;32.57
77079;BME280;66004;55.096;38.760;2023-04-25T11:40:10;99626.13;;;20.39;32.63
77079;BME280;66004;55.096;38.760;2023-04-25T11:42:46;99631.16;;;20.13;32.86
77079;BME280;66004;55.096;38.760;2023-04-25T11:45:12;99627.09;;;20.07;33.12
77079;BME280;66004;55.096;38.760;2023-04-25T11:47:38;99626.28;;;20.10;33.39
77079;BME280;66004;55.096;38.760;2023-04-25T11:50:06;99614.00;;;20.13;33.06
77079;BME280;66004;55.096;38.760;2023-04-25T11:52:39;99609.22;;;19.96;32.75
77079;BME280;66004;55.096;38.760;2023-04-25T11:55:12;99608.06;;;19.75;32.96
77079;BME280;66004;55.096;38.760;2023-04-25T11:57:39;99606.06;;;19.72;32.78
77079;BME280;66004;55.096;38.760;2023-04-25T12:00:10;99595.41;;;19.83;32.76
77079;BME280;66004;55.096;38.760;2023-04-25T12:02:37;99611.66;;;19.94;32.58
77079;BME280;66004;55.096;38.760;2023-04-25T12:05:06;99586.84;;;19.83;32.55
77079;BME280;66004;55.096;38.760;2023-04-25T12:07:34;99586.03;;;19.79;32.92
77079;BME280;66004;55.096;38.760;2023-04-25T12:09:59;99576.66;;;19.68;32.92
77079;BME280;66004;55.096;38.760;2023-04-25T12:12:32;99584.81;;;19.66;33.16
77079;BME280;66004;55.096;38.760;2023-04-25T12:15:08;99582.44;;;19.61;33.72
77079;BME280;66004;55.096;38.760;2023-04-25T12:17:34;99562.03;;;19.59;33.83
77079;BME280;66004;55.096;38.760;2023-04-25T12:20:06;99555.53;;;19.55;33.79
77079;BME280;66004;55.096;38.760;2023-04-25T12:22:32;99555.91;;;19.64;34.19
77079;BME280;66004;55.096;38.760;2023-04-25T12:24:58;99553.84;;;19.68;34.08
77079;BME280;66004;55.096;38.760;2023-04-25T12:27:25;99548.13;;;19.75;34.17
77079;BME280;66004;55.096;38.760;2023-04-25T12:29:55;99532.66;;;19.69;34.41
77079;BME280;66004;55.096;38.760;2023-04-25T12:32:21;99524.50;;;19.64;34.76
77079;BME280;66004;55.096;38.760;2023-04-25T12:34:47;99529.47;;;19.49;34.63
77079;BME280;66004;55.096;38.760;2023-04-25T12:37:13;99516.47;;;19.37;34.62
77079;BME280;66004;55.096;38.760;2023-04-25T12:39:38;99526.22;;;19.47;34.84
77079;BME280;66004;55.096;38.760;2023-04-25T12:42:04;99506.63;;;19.49;34.72
77079;BME280;66004;55.096;38.760;2023-04-25T12:44:29;99513.97;;;19.57;34.83
77079;BME280;66004;55.096;38.760;2023-04-25T12:46:55;99508.19;;;19.68;34.83
77079;BME280;66004;55.096;38.760;2023-04-25T12:49:21;99499.22;;;19.66;34.90
77079;BME280;66004;55.096;38.760;2023-04-25T12:51:47;99493.63;;;19.44;35.09
77079;BME280;66004;55.096;38.760;2023-04-25T12:54:13;99500.16;;;19.41;35.23
77079;BME280;66004;55.096;38.760;2023-04-25T12:56:40;99503.47;;;19.29;35.56